Terminal Aerodrome Forecast
Issued by NWS

Home | Current Version | Previous Version | Text Only | Print | Product List | Glossary On
Versions: 1 2 3 4 5 6 7 8 9 10 11 12 13 14
283
FTUS45 KRIW 302330
TAFJAC
TAF
KJAC 302330Z 0100/0124 21010KT P6SM VCSH SCT026 BKN035
      TEMPO 0104/0108 4SM -SN OVC020
     FM011100 21007KT P6SM SCT030 BKN045
     FM011800 21010KT P6SM SCT040 BKN100
     FM012200 23010G18KT P6SM VCSH BKN035
      AMD LTD TO CLD VIS AND WIND=

USA.gov is the U.S. government's official web portal to all federal, state and local government web resources and services.